Eastend Cypress, Canada
Current Conditions -  °F | °C
As of 3:53 AM on Friday 31 Oct 2014 (Local Time) from KHVR Reporting Station
Clear Clear  
Wind Chill: 23°   Ceiling: Unl
Heat Index: 33°   Visibility: 10mi
Dew Point: 31°   Wind: 16mph
Humidity: 92%   Direction: 70°ENE
Pressure: 29.95"   Gusts: NA
Location:  49.43°N, 108.98°W
Report Text: KHVR 310953Z AUTO 07014KT 10SM CLR 01/M01 A2995 RMK AO2 SLP162 T00061006 $
Loading
Personal Weather Stations






























Interactive Weather Map
Tropical Storm Tracking
New forecast layout! Learn more

10-Day Weather Forecast

Advertisements
Track Severe Weather on mobile